Weather at Riga International Airport

Public forecast

Using degrees Celsius for public forecast. Weather courtesy of forecast.io.

Current aviation weather report (METAR) for Riga International Airport

Report is more than 6 hours old.

Retrieved 2022/09/17 18:50 UTC (19 days ago):

EVRA 171850Z 21006KT 170V230 9999 FEW007 SCT015CB 11/11 Q0997 NOSIG

Aviation forecast (TAF) for Riga International Airport

Forecast is more than 12 hours old.

Retrieved 2022/09/17 18:03 UTC (19 days ago):

TAF EVRA 171700Z 1718/1818 22005KT 9999 BKN040 TEMPO 1718/1721 4000 -TSRA BKN020CB TEMPO 1723/1806 0700 FG BKN002 TEMPO 1809/1817 SCT030CB